createdAt,value
2022-07-25T00:00:18.791Z,24.10
2022-07-25T00:02:47.527Z,24.00
2022-07-25T00:05:15.928Z,24.00
2022-07-25T00:07:44.317Z,24.00
2022-07-25T00:10:14.068Z,23.90
2022-07-25T00:12:43.121Z,23.90
2022-07-25T00:15:12.569Z,23.90
2022-07-25T00:17:41.436Z,23.90
2022-07-25T00:20:10.978Z,23.90
2022-07-25T00:22:39.314Z,23.90
2022-07-25T00:25:08.856Z,23.80
2022-07-25T00:27:38.670Z,23.80
2022-07-25T00:30:08.495Z,23.70
2022-07-25T00:32:36.825Z,23.70
2022-07-25T00:35:05.938Z,23.70
2022-07-25T00:37:34.258Z,23.70
2022-07-25T00:40:02.777Z,23.60
2022-07-25T00:42:31.367Z,23.60
2022-07-25T00:45:01.382Z,23.60
2022-07-25T00:47:30.259Z,23.50
2022-07-25T00:49:58.702Z,23.50
2022-07-25T00:52:27.483Z,23.50
2022-07-25T00:54:56.793Z,23.50
2022-07-25T00:57:25.167Z,23.50
2022-07-25T00:59:53.540Z,23.50
2022-07-25T01:02:23.532Z,23.50
2022-07-25T01:04:51.870Z,23.50
2022-07-25T01:07:20.244Z,23.50
2022-07-25T01:09:48.906Z,23.50
2022-07-25T01:12:17.351Z,23.50
2022-07-25T01:14:45.705Z,23.50
2022-07-25T01:17:14.340Z,23.50
2022-07-25T01:19:44.230Z,23.60
2022-07-25T01:22:14.000Z,23.60
2022-07-25T01:24:42.410Z,23.60
2022-07-25T01:27:17.116Z,23.70
2022-07-25T01:29:45.892Z,23.70
2022-07-25T01:32:14.276Z,23.60
2022-07-25T01:34:42.555Z,23.60
2022-07-25T01:37:10.869Z,23.60
2022-07-25T01:39:40.650Z,23.60
2022-07-25T01:42:09.015Z,23.50
2022-07-25T01:44:37.305Z,23.50
2022-07-25T01:47:06.105Z,23.40
2022-07-25T01:49:34.950Z,23.40
2022-07-25T01:52:03.278Z,23.30
2022-07-25T01:54:32.212Z,23.40
2022-07-25T01:57:01.873Z,23.40
2022-07-25T01:59:30.236Z,23.30
2022-07-25T02:01:58.954Z,23.30
2022-07-25T02:04:27.384Z,23.30
2022-07-25T02:06:55.727Z,23.30
2022-07-25T02:09:24.041Z,23.20
2022-07-25T02:11:52.375Z,23.20
2022-07-25T02:14:24.115Z,23.10
2022-07-25T02:16:52.747Z,23.10
2022-07-25T02:19:21.390Z,23.10
2022-07-25T02:21:49.682Z,23.10
2022-07-25T02:24:18.176Z,23.00
2022-07-25T02:26:46.464Z,23.00
2022-07-25T02:29:14.821Z,22.90
2022-07-25T02:31:44.601Z,22.80
2022-07-25T02:34:13.128Z,22.80
2022-07-25T02:36:41.742Z,22.80
2022-07-25T02:39:10.128Z,22.80
2022-07-25T02:41:38.939Z,22.70
2022-07-25T02:44:08.183Z,22.70
2022-07-25T02:46:36.869Z,22.70
2022-07-25T02:49:06.717Z,22.60
2022-07-25T02:51:35.065Z,22.60
2022-07-25T02:54:03.393Z,22.60
2022-07-25T02:56:33.419Z,22.50
2022-07-25T02:59:01.903Z,22.50
2022-07-25T03:01:30.534Z,22.50
2022-07-25T03:03:58.951Z,22.40
2022-07-25T03:06:28.662Z,22.40
2022-07-25T03:08:56.994Z,22.40
2022-07-25T03:11:25.385Z,22.40
2022-07-25T03:13:53.730Z,22.40
2022-07-25T03:16:22.121Z,22.40
2022-07-25T03:18:50.499Z,22.50
2022-07-25T03:21:18.893Z,22.40
2022-07-25T03:23:52.398Z,22.50
2022-07-25T03:26:21.736Z,22.50
2022-07-25T03:28:50.044Z,22.40
2022-07-25T03:31:18.410Z,22.40
2022-07-25T03:33:47.164Z,22.30
2022-07-25T03:36:15.702Z,22.30
2022-07-25T03:38:44.202Z,22.30
2022-07-25T03:41:14.334Z,22.40
2022-07-25T03:43:42.671Z,22.40
2022-07-25T03:46:11.067Z,22.40
2022-07-25T03:48:39.556Z,22.40
2022-07-25T03:51:08.523Z,22.40
2022-07-25T03:53:57.387Z,22.40
2022-07-25T03:56:27.148Z,22.40
2022-07-25T03:58:56.753Z,22.50
2022-07-25T04:01:26.664Z,22.40
2022-07-25T04:03:55.534Z,22.40
2022-07-25T04:06:24.530Z,22.40
2022-07-25T04:08:53.093Z,22.50
2022-07-25T04:11:21.698Z,22.60
2022-07-25T04:13:52.772Z,22.60
2022-07-25T04:16:22.765Z,22.60
2022-07-25T04:18:52.210Z,22.60
2022-07-25T04:21:20.844Z,22.60
2022-07-25T04:23:49.492Z,22.70
2022-07-25T04:26:18.476Z,22.60
2022-07-25T04:28:46.882Z,22.70
2022-07-25T04:31:16.970Z,22.70
2022-07-25T04:33:46.182Z,22.80
2022-07-25T04:36:14.738Z,22.80
2022-07-25T04:38:43.306Z,22.80
2022-07-25T04:41:11.736Z,22.80
2022-07-25T04:43:43.597Z,22.80
2022-07-25T04:46:19.347Z,22.80
2022-07-25T04:48:48.134Z,22.90
2022-07-25T04:51:16.758Z,22.80
2022-07-25T04:53:45.190Z,22.80
2022-07-25T04:56:13.672Z,22.90
2022-07-25T04:58:42.093Z,22.90
2022-07-25T05:01:10.636Z,22.90
2022-07-25T05:03:40.375Z,22.90
2022-07-25T05:06:09.647Z,23.00
2022-07-25T05:08:38.029Z,23.00
2022-07-25T05:11:06.900Z,23.10
2022-07-25T05:13:35.386Z,23.10
2022-07-25T05:16:04.090Z,23.10
2022-07-25T05:18:32.476Z,23.10
2022-07-25T05:21:02.224Z,23.10
2022-07-25T05:23:30.663Z,23.10
2022-07-25T05:25:59.178Z,23.10
2022-07-25T05:28:27.578Z,23.20
2022-07-25T05:30:55.888Z,23.30
2022-07-25T05:33:24.225Z,23.40
2022-07-25T05:35:52.560Z,23.50
2022-07-25T05:38:22.469Z,23.40
2022-07-25T05:40:52.198Z,23.40
2022-07-25T05:43:20.906Z,23.40
2022-07-25T05:45:49.228Z,23.40
2022-07-25T05:48:17.981Z,23.50
2022-07-25T05:50:46.998Z,23.50
2022-07-25T05:53:15.293Z,23.60
2022-07-25T05:55:44.964Z,23.70
2022-07-25T05:58:13.374Z,23.80
2022-07-25T06:00:41.761Z,23.80
2022-07-25T06:03:10.348Z,23.80
2022-07-25T06:05:38.758Z,23.90
2022-07-25T06:08:07.539Z,23.90
2022-07-25T06:10:35.846Z,24.00
2022-07-25T06:13:07.312Z,24.10
2022-07-25T06:15:36.309Z,24.10
2022-07-25T06:18:04.827Z,24.20
2022-07-25T06:54:19.580Z,24.40
2022-07-25T06:56:47.952Z,24.50
2022-07-25T06:59:16.291Z,24.50
2022-07-25T07:01:49.482Z,24.60
2022-07-25T07:04:20.154Z,24.60
2022-07-25T07:06:48.645Z,24.50
2022-07-25T07:09:16.958Z,24.60
2022-07-25T07:11:46.662Z,24.70
2022-07-25T07:14:15.119Z,24.80
2022-07-25T07:16:43.693Z,24.90
2022-07-25T07:19:14.463Z,24.90
2022-07-25T07:21:46.049Z,24.90
2022-07-25T07:24:23.352Z,25.10
2022-07-25T07:26:54.344Z,25.10
2022-07-25T07:29:23.045Z,25.20
2022-07-25T07:31:51.473Z,25.30
2022-07-25T07:34:20.453Z,25.30
2022-07-25T07:36:48.866Z,25.20
2022-07-25T07:39:17.592Z,25.10
2022-07-25T07:41:46.076Z,25.30
2022-07-25T07:44:15.802Z,25.30
2022-07-25T07:46:44.297Z,25.50
2022-07-25T07:49:13.124Z,25.60
2022-07-25T07:51:41.559Z,25.90
2022-07-25T07:54:27.565Z,26.30
2022-07-25T07:56:56.314Z,26.30
2022-07-25T07:59:26.406Z,26.20
2022-07-25T08:01:55.207Z,26.20
2022-07-25T08:04:23.561Z,26.20
2022-07-25T08:06:51.882Z,26.00
2022-07-25T08:09:20.450Z,25.90
2022-07-25T08:11:48.862Z,25.90
2022-07-25T08:14:17.258Z,25.90
2022-07-25T08:16:47.197Z,25.90
2022-07-25T08:19:15.590Z,25.80
2022-07-25T08:21:43.886Z,25.80
2022-07-25T08:24:15.637Z,26.00
2022-07-25T08:26:43.956Z,26.40
2022-07-25T08:29:19.391Z,26.90
2022-07-25T08:31:49.880Z,27.20
2022-07-25T08:34:19.531Z,27.50
2022-07-25T08:36:47.961Z,27.50
2022-07-25T08:39:16.552Z,27.60
2022-07-25T08:41:44.978Z,27.70
2022-07-25T08:44:18.383Z,27.70
2022-07-25T08:46:47.537Z,27.50
2022-07-25T08:49:17.579Z,27.20
2022-07-25T08:51:47.534Z,27.00
2022-07-25T08:54:20.605Z,26.30
2022-07-25T08:56:51.665Z,26.20
2022-07-25T08:59:20.083Z,25.90
2022-07-25T09:01:48.546Z,25.60
2022-07-25T09:04:18.702Z,25.60
2022-07-25T09:06:51.946Z,25.50
2022-07-25T09:09:20.539Z,25.40
2022-07-25T09:11:50.044Z,25.60
2022-07-25T09:14:18.488Z,25.60
2022-07-25T09:16:47.398Z,26.00
2022-07-25T09:19:20.339Z,26.40
2022-07-25T09:22:01.974Z,26.80
2022-07-25T09:24:31.178Z,27.20
2022-07-25T09:27:02.644Z,27.60
2022-07-25T09:29:33.667Z,27.90
2022-07-25T09:32:14.538Z,28.10
2022-07-25T09:34:47.697Z,28.00
2022-07-25T09:37:19.253Z,28.10
2022-07-25T09:39:49.862Z,28.20
2022-07-25T09:42:25.437Z,28.30
2022-07-25T09:45:04.256Z,28.60
2022-07-25T09:47:35.254Z,28.70
2022-07-25T09:50:06.746Z,28.70
2022-07-25T09:52:35.719Z,28.50
2022-07-25T09:55:08.085Z,28.40
2022-07-25T09:57:36.449Z,28.20
2022-07-25T10:00:08.522Z,28.00
2022-07-25T10:02:51.337Z,27.90
2022-07-25T10:05:36.183Z,28.00
2022-07-25T10:08:08.966Z,28.10
2022-07-25T10:10:41.347Z,28.00
2022-07-25T10:13:12.110Z,28.00
2022-07-25T10:15:50.959Z,28.10
2022-07-25T10:18:21.812Z,28.20
2022-07-25T10:20:55.857Z,28.10
2022-07-25T10:23:27.074Z,27.70
2022-07-25T10:26:10.229Z,27.40
2022-07-25T10:28:46.001Z,27.00
2022-07-25T10:31:23.531Z,27.20
2022-07-25T10:33:58.745Z,27.30
2022-07-25T10:36:42.210Z,27.50
2022-07-25T10:39:13.666Z,27.40
2022-07-25T10:41:44.538Z,27.10
2022-07-25T10:44:15.584Z,27.00
2022-07-25T10:46:45.236Z,27.10
2022-07-25T10:49:26.331Z,27.10
2022-07-25T10:52:05.529Z,26.70
2022-07-25T10:54:37.025Z,26.60
2022-07-25T10:57:08.156Z,26.60
2022-07-25T10:59:40.490Z,26.40
2022-07-25T11:02:16.322Z,26.50
2022-07-25T11:04:46.303Z,26.50
2022-07-25T11:07:18.681Z,26.30
2022-07-25T11:09:57.009Z,26.10
2022-07-25T11:12:26.020Z,26.00
2022-07-25T11:15:01.617Z,26.00
2022-07-25T11:17:31.378Z,26.10
2022-07-25T11:20:03.993Z,26.20
2022-07-25T11:22:35.731Z,26.20
2022-07-25T11:25:11.975Z,26.10
2022-07-25T11:27:40.455Z,25.80
2022-07-25T11:30:09.758Z,25.60
2022-07-25T11:32:42.559Z,25.50
2022-07-25T11:35:13.044Z,25.50
2022-07-25T11:37:48.923Z,25.40
2022-07-25T11:40:19.053Z,25.40
2022-07-25T11:42:49.543Z,25.60
2022-07-25T11:45:20.677Z,25.60
2022-07-25T11:47:50.852Z,25.50
2022-07-25T11:50:19.325Z,25.40
2022-07-25T11:52:59.432Z,25.20
2022-07-25T11:55:32.259Z,25.00
2022-07-25T11:58:03.534Z,24.90
2022-07-25T12:00:36.063Z,24.90
2022-07-25T12:03:12.021Z,25.10
2022-07-25T12:05:42.742Z,25.20
2022-07-25T12:08:15.432Z,25.30
2022-07-25T12:10:47.533Z,25.50
2022-07-25T12:13:24.527Z,25.60
2022-07-25T12:15:53.448Z,25.80
2022-07-25T12:18:21.857Z,26.00
2022-07-25T12:20:50.432Z,26.20
2022-07-25T12:23:21.656Z,26.50
2022-07-25T12:25:50.871Z,26.70
2022-07-25T12:28:19.278Z,26.40
2022-07-25T12:30:56.055Z,26.30
2022-07-25T12:33:25.310Z,26.50
2022-07-25T12:35:54.118Z,26.70
2022-07-25T12:38:23.884Z,26.80
2022-07-25T12:40:52.536Z,26.80
2022-07-25T12:43:21.282Z,26.90
2022-07-25T12:45:50.303Z,27.10
2022-07-25T12:48:18.710Z,27.20
2022-07-25T12:50:47.082Z,27.10
2022-07-25T12:53:15.558Z,27.10
2022-07-25T12:55:45.408Z,27.20
2022-07-25T12:58:15.159Z,27.20
2022-07-25T13:00:43.658Z,27.20
2022-07-25T13:03:12.338Z,27.40
2022-07-25T13:05:41.889Z,27.70
2022-07-25T13:08:10.338Z,27.90
2022-07-25T13:10:38.940Z,27.90
2022-07-25T13:13:08.808Z,27.90
2022-07-25T13:15:37.460Z,27.70
2022-07-25T13:18:06.319Z,27.40
2022-07-25T13:20:37.549Z,27.30
2022-07-25T13:23:07.226Z,27.50
2022-07-25T13:25:36.412Z,27.60
2022-07-25T13:28:09.104Z,27.90
2022-07-25T13:30:41.145Z,28.30
2022-07-25T13:33:10.648Z,28.50
2022-07-25T13:35:39.981Z,28.50
2022-07-25T13:38:11.192Z,28.40
2022-07-25T13:40:42.097Z,28.30
2022-07-25T13:43:10.828Z,28.20
2022-07-25T13:45:41.251Z,28.20
2022-07-25T13:51:00.100Z,28.20
2022-07-25T13:53:30.692Z,28.20
2022-07-25T13:56:01.517Z,28.00
2022-07-25T13:58:30.554Z,27.90
2022-07-25T14:01:00.604Z,27.70
2022-07-25T14:03:29.022Z,27.50
2022-07-25T14:05:57.374Z,27.60
2022-07-25T14:08:26.432Z,27.50
2022-07-25T14:10:54.786Z,27.50
2022-07-25T14:13:23.562Z,27.70
2022-07-25T14:15:52.300Z,27.70
2022-07-25T14:18:22.347Z,27.70
2022-07-25T14:20:51.083Z,27.50
2022-07-25T14:23:19.820Z,27.70
2022-07-25T14:25:48.740Z,27.90
2022-07-25T14:28:17.364Z,28.10
2022-07-25T14:30:45.908Z,28.20
2022-07-25T14:33:14.375Z,28.10
2022-07-25T14:35:44.160Z,28.20
2022-07-25T14:38:12.694Z,28.10
2022-07-25T14:40:43.693Z,28.20
2022-07-25T14:43:12.150Z,28.20
2022-07-25T14:45:42.587Z,28.20
2022-07-25T14:48:11.037Z,28.10
2022-07-25T14:50:39.442Z,27.90
2022-07-25T14:53:09.152Z,27.80
2022-07-25T14:55:38.305Z,27.40
2022-07-25T14:58:06.727Z,27.40
2022-07-25T15:00:35.744Z,27.20
2022-07-25T15:03:04.251Z,27.10
2022-07-25T15:05:32.780Z,27.00
2022-07-25T15:08:01.637Z,26.80
2022-07-25T15:10:31.906Z,26.90
2022-07-25T15:13:28.187Z,26.90
2022-07-25T15:15:49.649Z,26.90
2022-07-25T15:18:18.144Z,27.00
2022-07-25T15:20:48.572Z,27.10
2022-07-25T15:23:16.880Z,27.00
2022-07-25T15:26:04.365Z,27.00
2022-07-25T15:28:34.801Z,26.80
2022-07-25T15:31:03.510Z,26.80
2022-07-25T15:33:32.294Z,26.70
2022-07-25T15:36:00.983Z,26.80
2022-07-25T15:38:30.864Z,27.00
2022-07-25T15:41:00.703Z,26.90
2022-07-25T15:43:29.616Z,26.80
2022-07-25T15:45:58.163Z,26.90
2022-07-25T15:48:29.122Z,27.00
2022-07-25T15:50:59.817Z,27.10
2022-07-25T15:53:29.247Z,27.10
2022-07-25T15:55:58.425Z,27.00
2022-07-25T15:58:28.416Z,26.70
2022-07-25T16:00:56.965Z,26.50
2022-07-25T16:03:25.480Z,26.60
2022-07-25T16:05:56.605Z,26.50
2022-07-25T16:08:25.153Z,26.30
2022-07-25T16:10:53.570Z,25.90
2022-07-25T16:13:22.053Z,25.80
2022-07-25T16:15:52.052Z,25.60
2022-07-25T16:18:20.842Z,25.50
2022-07-25T16:20:49.381Z,25.50
2022-07-25T16:23:17.772Z,25.40
2022-07-25T16:25:46.231Z,25.40
2022-07-25T16:28:14.639Z,25.20
2022-07-25T16:30:43.078Z,25.00
2022-07-25T16:33:12.749Z,24.90
2022-07-25T16:35:41.171Z,25.00
2022-07-25T16:38:09.661Z,25.20
2022-07-25T16:40:38.172Z,25.10
2022-07-25T16:43:07.638Z,25.10
2022-07-25T16:45:37.519Z,25.10
2022-07-25T16:48:07.628Z,25.10
2022-07-25T16:50:37.342Z,24.90
2022-07-25T16:53:05.877Z,24.80
2022-07-25T16:55:35.319Z,24.80
2022-07-25T16:58:04.169Z,24.60
2022-07-25T17:00:32.488Z,24.40
2022-07-25T17:03:01.128Z,24.40
2022-07-25T17:05:29.649Z,24.30
2022-07-25T17:07:59.918Z,24.20
2022-07-25T17:10:28.742Z,24.20
2022-07-25T17:12:57.573Z,24.00
2022-07-25T17:15:26.088Z,24.10
2022-07-25T17:17:54.433Z,23.80
2022-07-25T17:20:23.024Z,23.90
2022-07-25T17:22:51.394Z,23.80
2022-07-25T17:25:21.407Z,23.70
2022-07-25T17:27:49.785Z,23.70
2022-07-25T17:30:18.113Z,23.60
2022-07-25T17:32:46.503Z,23.60
2022-07-25T17:35:15.054Z,23.50
2022-07-25T17:37:43.474Z,23.50
2022-07-25T17:40:12.406Z,23.50
2022-07-25T17:42:45.280Z,23.40
2022-07-25T17:45:15.127Z,23.50
2022-07-25T17:47:44.576Z,23.40
2022-07-25T17:50:13.312Z,23.30
2022-07-25T17:52:41.844Z,23.30
2022-07-25T17:55:12.104Z,23.40
2022-07-25T17:57:44.292Z,23.40
2022-07-25T18:00:14.736Z,23.30
2022-07-25T18:02:43.278Z,23.20
2022-07-25T18:05:12.031Z,23.10
2022-07-25T18:07:45.320Z,23.10
2022-07-25T18:10:14.154Z,23.20
2022-07-25T18:12:44.507Z,23.10
2022-07-25T18:15:14.897Z,23.10
2022-07-25T18:17:44.720Z,23.10
2022-07-25T18:20:16.587Z,23.10
2022-07-25T18:22:45.412Z,23.10
2022-07-25T18:25:15.339Z,23.00
2022-07-25T18:27:47.868Z,23.00
2022-07-25T18:30:17.098Z,23.10
2022-07-25T18:32:46.023Z,23.10
2022-07-25T18:35:14.937Z,23.10
2022-07-25T18:37:44.035Z,23.10
2022-07-25T18:40:14.294Z,23.10
2022-07-25T18:42:44.587Z,23.10
2022-07-25T18:45:14.252Z,23.00
2022-07-25T18:47:42.765Z,22.90
2022-07-25T18:50:11.644Z,22.90
2022-07-25T18:52:40.276Z,23.00
2022-07-25T18:55:10.504Z,23.00
2022-07-25T18:57:39.337Z,23.00
2022-07-25T19:00:11.816Z,23.10
2022-07-25T19:02:40.252Z,23.00
2022-07-25T19:05:10.477Z,23.00
2022-07-25T19:07:39.867Z,22.90
2022-07-25T19:10:08.789Z,22.80
2022-07-25T19:12:37.326Z,22.80
2022-07-25T19:15:06.917Z,22.80
2022-07-25T19:17:37.702Z,22.80
2022-07-25T19:20:08.005Z,22.80
2022-07-25T19:22:36.384Z,22.70
2022-07-25T19:25:08.361Z,22.60
2022-07-25T19:27:36.897Z,22.70
2022-07-25T19:30:07.026Z,22.70
2022-07-25T19:32:37.350Z,22.80
2022-07-25T19:35:08.468Z,22.70
2022-07-25T19:37:37.189Z,22.70
2022-07-25T19:40:07.478Z,22.60
2022-07-25T19:42:36.855Z,22.60
2022-07-25T19:45:07.372Z,22.50
2022-07-25T19:47:37.079Z,22.40
2022-07-25T19:50:06.163Z,22.40
2022-07-25T19:52:34.926Z,22.40
2022-07-25T19:55:03.345Z,22.40
2022-07-25T19:57:31.790Z,22.30
2022-07-25T20:00:00.780Z,22.20
2022-07-25T20:02:29.254Z,22.10
2022-07-25T20:04:59.048Z,22.10
2022-07-25T20:07:29.090Z,22.10
2022-07-25T20:09:57.651Z,22.00
2022-07-25T20:12:26.062Z,22.00
2022-07-25T20:14:54.474Z,22.00
2022-07-25T20:17:23.381Z,21.90
2022-07-25T20:19:52.626Z,21.80
2022-07-25T20:22:22.475Z,21.80
2022-07-25T20:24:50.905Z,21.80
2022-07-25T20:27:19.483Z,21.70
2022-07-25T20:29:48.845Z,21.70
2022-07-25T20:32:17.477Z,21.70
2022-07-25T20:34:46.354Z,21.60
2022-07-25T20:37:15.150Z,21.50
2022-07-25T20:39:44.863Z,21.40
2022-07-25T20:42:16.737Z,21.30
2022-07-25T20:44:45.208Z,21.20
2022-07-25T20:47:16.179Z,21.10
2022-07-25T20:49:44.765Z,21.00
2022-07-25T20:52:13.151Z,21.00
2022-07-25T20:54:43.066Z,20.90
2022-07-25T20:57:13.982Z,20.90
2022-07-25T20:59:42.430Z,20.80
2022-07-25T21:02:11.463Z,20.80
2022-07-25T21:04:40.062Z,20.80
2022-07-25T21:07:08.438Z,20.80
2022-07-25T21:09:39.446Z,20.80
2022-07-25T21:12:08.757Z,20.80
2022-07-25T21:14:38.508Z,20.80
2022-07-25T21:17:06.981Z,20.70
2022-07-25T21:19:35.764Z,20.80
2022-07-25T21:22:04.297Z,20.80
2022-07-25T21:24:33.796Z,20.80
2022-07-25T21:27:02.979Z,20.80
2022-07-25T21:29:31.404Z,20.80
2022-07-25T21:32:01.189Z,20.70
2022-07-25T21:34:29.595Z,20.80
2022-07-25T21:36:57.909Z,20.70
2022-07-25T21:39:26.190Z,20.70
2022-07-25T21:41:55.100Z,20.60
2022-07-25T21:44:24.013Z,20.70
2022-07-25T21:46:52.596Z,20.80
2022-07-25T21:49:41.923Z,20.80
2022-07-25T21:52:13.806Z,20.90
2022-07-25T21:54:42.717Z,20.80
2022-07-25T21:57:13.587Z,20.80
2022-07-25T21:59:43.293Z,20.70
2022-07-25T22:02:12.278Z,20.80
2022-07-25T22:04:42.095Z,20.80
2022-07-25T22:07:10.597Z,20.80
2022-07-25T22:09:38.982Z,20.80
2022-07-25T22:12:08.868Z,20.90
2022-07-25T22:14:38.161Z,20.90
2022-07-25T22:17:07.076Z,20.90
2022-07-25T22:19:35.604Z,20.90
2022-07-25T22:22:06.933Z,20.90
2022-07-25T22:24:35.800Z,20.90
2022-07-25T22:27:04.349Z,20.90
2022-07-25T22:29:32.800Z,21.00
2022-07-25T22:32:01.279Z,20.90
2022-07-25T22:34:29.715Z,20.90
2022-07-25T22:36:58.129Z,20.90
2022-07-25T22:39:28.218Z,21.00
2022-07-25T22:41:56.534Z,21.00
2022-07-25T22:44:25.119Z,21.00
2022-07-25T22:46:53.376Z,20.90
2022-07-25T22:49:23.317Z,20.90
2022-07-25T22:51:51.746Z,20.90
2022-07-25T22:54:20.086Z,20.60
2022-07-25T22:56:50.176Z,20.50
2022-07-25T22:59:19.332Z,20.50
2022-07-25T23:01:47.690Z,20.50
2022-07-25T23:04:16.075Z,20.50
2022-07-25T23:06:44.875Z,20.60
2022-07-25T23:09:14.385Z,20.60
2022-07-25T23:11:42.754Z,20.70
2022-07-25T23:14:13.066Z,20.60
2022-07-25T23:16:41.782Z,20.60
2022-07-25T23:19:10.572Z,20.50
2022-07-25T23:21:39.402Z,20.50
2022-07-25T23:24:08.302Z,20.60
2022-07-25T23:26:36.618Z,20.60
2022-07-25T23:29:05.201Z,20.60
2022-07-25T23:31:35.435Z,20.70
2022-07-25T23:34:04.795Z,20.60
2022-07-25T23:36:33.378Z,20.60
2022-07-25T23:39:01.746Z,20.60
2022-07-25T23:41:30.354Z,20.60
2022-07-25T23:44:00.572Z,20.60
2022-07-25T23:46:31.049Z,20.50
2022-07-25T23:49:01.871Z,20.60
2022-07-25T23:51:30.405Z,20.50
2022-07-25T23:53:59.310Z,20.50
2022-07-25T23:56:27.736Z,20.50
2022-07-25T23:58:56.891Z,20.50
